Time;durP1;ratioP1;P1;durP2;ratioP2;P2;SDS_P1;SDS_P2;PMS_P1;PMS_P2;Temp;Humidity;BMP_temperature;BMP_pressure;BME280_temperature;BME280_humidity;BME280_pressure;Samples;Min_cycle;Max_cycle;Signal;HPM_P1;HPM_P2
2022/10/03 00:00:19;;;;;;;11.10;3.13;;;9.60;99.90;;;;;;4787701;30;20108;-67
2022/10/03 00:03:26;;;;;;;14.77;2.30;;;9.60;99.90;;;;;;4785207;29;20194;-67
2022/10/03 00:06:17;;;;;;;9.32;2.08;;;9.50;99.90;;;;;;4775712;30;20063;-66
2022/10/03 00:12:46;;;;;;;13.52;3.03;;;9.50;99.90;;;;;;4771178;30;20051;-69
2022/10/03 00:15:44;;;;;;;13.75;3.00;;;9.50;99.90;;;;;;4770611;30;21593;-66
2022/10/03 00:18:44;;;;;;;12.23;2.90;;;9.50;99.90;;;;;;4770385;30;20118;-67
2022/10/03 00:21:32;;;;;;;9.52;3.08;;;9.40;99.90;;;;;;4788486;30;20059;-68
2022/10/03 00:24:29;;;;;;;14.40;2.97;;;9.40;99.90;;;;;;4786767;30;20122;-67
2022/10/03 00:27:09;;;;;;;10.57;2.65;;;9.40;99.90;;;;;;4770547;30;20111;-67
2022/10/03 00:29:37;;;;;;;13.43;2.85;;;9.40;99.90;;;;;;4785056;29;20144;-67
2022/10/03 00:32:21;;;;;;;11.85;2.45;;;9.40;99.90;;;;;;4786642;30;20043;-67
2022/10/03 00:34:49;;;;;;;9.40;2.80;;;9.40;99.90;;;;;;4786563;30;20461;-68
2022/10/03 00:48:22;;;;;;;8.75;2.53;;;9.30;99.90;;;;;;4770288;30;20058;-68
2022/10/03 00:51:13;;;;;;;8.80;2.50;;;9.20;99.90;;;;;;4785615;30;20043;-67
2022/10/03 00:57:16;;;;;;;11.98;2.67;;;9.20;99.90;;;;;;4766546;30;20055;-67
2022/10/03 01:00:19;;;;;;;13.18;2.92;;;9.10;99.90;;;;;;4769961;30;20530;-67
2022/10/03 01:06:07;;;;;;;11.75;2.78;;;9.10;99.90;;;;;;4787192;30;20005;-67
2022/10/03 01:08:57;;;;;;;10.48;2.60;;;9.00;99.90;;;;;;4763241;30;20054;-66
2022/10/03 01:11:52;;;;;;;9.38;2.40;;;9.00;99.90;;;;;;4785737;30;20050;-67
2022/10/03 01:14:46;;;;;;;8.80;2.33;;;9.00;99.90;;;;;;4769874;30;20497;-67
2022/10/03 01:17:35;;;;;;;9.13;2.55;;;9.00;99.90;;;;;;4770966;30;20070;-67
2022/10/03 01:20:29;;;;;;;10.38;2.60;;;9.00;99.90;;;;;;4786681;30;20087;-68
2022/10/03 01:23:21;;;;;;;9.23;2.67;;;9.00;99.90;;;;;;4782795;29;20201;-67
2022/10/03 01:26:13;;;;;;;11.27;2.70;;;9.00;99.90;;;;;;4785488;30;20055;-67
2022/10/03 01:31:58;;;;;;;8.70;2.45;;;9.00;99.90;;;;;;4786615;30;20074;-67
2022/10/03 01:34:30;;;;;;;7.70;2.40;;;8.90;99.90;;;;;;4785640;29;20492;-67
2022/10/03 01:37:21;;;;;;;9.32;2.20;;;8.90;99.90;;;;;;4786797;30;20055;-67
2022/10/03 01:40:05;;;;;;;11.75;2.38;;;8.90;99.90;;;;;;4785392;30;20108;-67
2022/10/03 01:42:36;;;;;;;10.35;2.50;;;8.90;99.90;;;;;;4769533;30;20055;-67
2022/10/03 01:45:11;;;;;;;9.45;2.38;;;8.90;99.90;;;;;;4787571;30;20059;-67
2022/10/03 01:47:43;;;;;;;10.13;2.22;;;8.90;99.90;;;;;;4771773;30;20051;-67
2022/10/03 01:50:45;;;;;;;5.57;2.30;;;8.90;99.90;;;;;;4760544;30;20059;-67
2022/10/03 01:53:22;;;;;;;12.20;2.67;;;8.80;99.90;;;;;;4789470;30;20066;-67
2022/10/03 01:56:11;;;;;;;8.80;1.95;;;8.80;99.90;;;;;;4790191;30;20051;-67
2022/10/03 01:58:57;;;;;;;7.82;2.28;;;8.80;99.90;;;;;;4773610;30;20480;-67
2022/10/03 02:01:57;;;;;;;10.48;2.08;;;8.80;99.90;;;;;;4788674;30;20067;-67
2022/10/03 02:04:48;;;;;;;8.75;2.33;;;8.70;99.90;;;;;;4774732;30;20066;-67
2022/10/03 02:07:28;;;;;;;9.87;2.13;;;8.70;99.90;;;;;;4760464;30;20158;-67
2022/10/03 02:10:06;;;;;;;7.85;2.08;;;8.70;99.90;;;;;;4789157;30;20080;-66
2022/10/03 02:12:40;;;;;;;9.75;2.10;;;8.70;99.90;;;;;;4789693;30;20063;-67
2022/10/03 02:15:38;;;;;;;9.07;2.25;;;8.70;99.90;;;;;;4766561;30;20063;-68
2022/10/03 02:18:14;;;;;;;11.07;2.72;;;8.70;99.90;;;;;;4751090;30;20063;-67
2022/10/03 02:21:09;;;;;;;9.07;2.28;;;8.70;99.90;;;;;;4790254;29;20082;-66
2022/10/03 02:23:35;;;;;;;10.93;2.47;;;8.70;99.90;;;;;;4774548;30;20062;-67
2022/10/03 02:26:35;;;;;;;11.52;2.47;;;8.70;99.90;;;;;;4787842;30;20055;-67
2022/10/03 02:29:20;;;;;;;12.80;2.72;;;8.80;99.90;;;;;;4788815;30;20059;-67
2022/10/03 02:32:07;;;;;;;7.95;2.30;;;8.80;99.90;;;;;;4787931;30;20093;-67
2022/10/03 02:35:09;;;;;;;8.02;2.17;;;8.90;99.90;;;;;;4788900;30;20417;-67
2022/10/03 02:37:50;;;;;;;11.65;2.22;;;9.00;99.90;;;;;;4778657;30;20055;-67
2022/10/03 02:40:34;;;;;;;10.13;2.30;;;9.00;99.90;;;;;;4788053;30;20074;-67
2022/10/03 02:43:54;;;;;;;9.55;2.47;;;9.10;99.90;;;;;;4788852;30;20350;-67
2022/10/03 02:46:54;;;;;;;9.05;2.10;;;9.10;99.90;;;;;;4751327;30;20170;-68
2022/10/03 02:49:58;;;;;;;9.23;2.00;;;9.20;99.90;;;;;;4788850;30;20092;-67
2022/10/03 02:52:39;;;;;;;7.40;1.83;;;9.20;99.90;;;;;;4789404;30;20063;-67
2022/10/03 02:55:13;;;;;;;11.27;2.88;;;9.20;99.90;;;;;;4787611;29;20093;-67
2022/10/03 02:57:50;;;;;;;7.45;2.20;;;9.30;99.90;;;;;;4788866;30;20083;-67
2022/10/03 03:00:20;;;;;;;9.40;2.00;;;9.30;99.90;;;;;;4789797;30;20070;-67
2022/10/03 03:03:10;;;;;;;11.57;2.83;;;9.30;99.90;;;;;;4771975;30;20067;-67
2022/10/03 03:06:15;;;;;;;9.65;1.98;;;9.30;99.90;;;;;;4772700;30;20515;-68
2022/10/03 03:08:59;;;;;;;10.23;2.40;;;9.40;99.90;;;;;;4771906;30;20459;-66
2022/10/03 03:11:58;;;;;;;9.73;2.33;;;9.40;99.90;;;;;;4772507;30;20060;-67
2022/10/03 03:14:30;;;;;;;11.73;2.25;;;9.40;99.90;;;;;;4788541;30;20073;-67
2022/10/03 03:17:22;;;;;;;8.30;2.38;;;9.40;99.90;;;;;;4771968;30;20063;-67
2022/10/03 03:20:18;;;;;;;11.00;2.42;;;9.40;99.90;;;;;;4786094;30;20404;-67
2022/10/03 03:22:52;;;;;;;11.68;2.22;;;9.30;99.90;;;;;;4788375;30;20096;-68
2022/10/03 03:25:59;;;;;;;12.25;2.65;;;9.30;99.90;;;;;;4787975;30;20067;-67
2022/10/03 03:28:40;;;;;;;10.65;2.28;;;9.30;99.90;;;;;;4771310;30;20513;-67
2022/10/03 03:31:13;;;;;;;12.55;2.60;;;9.30;99.90;;;;;;4787434;30;20523;-67
2022/10/03 03:34:06;;;;;;;8.77;2.97;;;9.30;99.90;;;;;;4787257;30;20442;-68
2022/10/03 03:36:53;;;;;;;9.88;2.42;;;9.20;99.90;;;;;;4785228;30;20222;-67
2022/10/03 03:39:27;;;;;;;7.53;2.17;;;9.20;99.90;;;;;;4771002;30;20573;-67
2022/10/03 03:42:02;;;;;;;10.43;2.10;;;9.20;99.90;;;;;;4787969;30;20070;-67
2022/10/03 03:45:02;;;;;;;6.00;2.20;;;9.10;99.90;;;;;;4757704;30;20519;-68
2022/10/03 03:48:07;;;;;;;10.75;2.47;;;9.10;99.90;;;;;;4770708;30;20209;-67
2022/10/03 03:50:51;;;;;;;9.15;2.00;;;9.00;99.90;;;;;;4770803;30;20066;-67
2022/10/03 03:53:40;;;;;;;10.48;2.30;;;9.10;99.90;;;;;;4787929;30;20051;-67
2022/10/03 03:56:35;;;;;;;9.88;2.63;;;9.00;99.90;;;;;;4771463;30;20062;-67
2022/10/03 03:59:19;;;;;;;8.02;2.38;;;9.00;99.90;;;;;;4723147;30;20065;-67
2022/10/03 04:02:20;;;;;;;11.15;2.38;;;8.90;99.90;;;;;;4787111;30;20059;-68
2022/10/03 04:05:18;;;;;;;9.65;1.85;;;8.90;99.90;;;;;;4713294;30;20088;-67
2022/10/03 04:07:58;;;;;;;10.10;2.50;;;8.90;99.90;;;;;;4770020;30;20063;-66
2022/10/03 04:10:57;;;;;;;9.27;2.15;;;8.90;99.90;;;;;;4787452;30;20055;-68
2022/10/03 04:14:01;;;;;;;9.90;2.40;;;8.90;99.90;;;;;;4769782;30;20063;-68
2022/10/03 04:19:47;;;;;;;8.45;2.20;;;8.80;99.90;;;;;;4770575;30;20055;-67
2022/10/03 04:22:56;;;;;;;10.02;3.00;;;8.80;99.90;;;;;;4770394;30;20069;-67
2022/10/03 04:25:31;;;;;;;7.85;2.08;;;8.70;99.90;;;;;;4786571;30;20063;-67
2022/10/03 04:36:10;;;;;;;6.68;1.90;;;8.70;99.90;;;;;;4780536;30;20046;-67
2022/10/03 04:42:39;;;;;;;9.32;2.55;;;8.60;99.90;;;;;;4771872;30;20063;-67
2022/10/03 04:45:37;;;;;;;6.28;2.00;;;8.60;99.90;;;;;;4781409;30;20121;-68
2022/10/03 04:59:37;;;;;;;6.78;2.03;;;8.60;99.90;;;;;;4754562;30;20055;-67
2022/10/03 05:02:39;;;;;;;11.13;2.30;;;8.50;99.90;;;;;;4769814;30;20063;-68
2022/10/03 05:05:22;;;;;;;12.10;2.33;;;8.50;99.90;;;;;;4769447;30;20051;-68
2022/10/03 05:08:25;;;;;;;7.50;1.90;;;8.50;99.90;;;;;;4784222;30;20483;-68
2022/10/03 05:19:00;;;;;;;9.45;2.35;;;8.50;99.90;;;;;;4786936;29;20125;-67
2022/10/03 05:21:41;;;;;;;11.98;2.60;;;8.40;99.90;;;;;;4774571;30;20112;-67
2022/10/03 05:24:15;;;;;;;11.70;2.22;;;8.40;99.90;;;;;;4790066;30;20142;-68
2022/10/03 05:27:02;;;;;;;7.05;2.05;;;8.40;99.90;;;;;;4788873;30;20043;-68
2022/10/03 05:29:58;;;;;;;7.03;2.13;;;8.40;99.90;;;;;;4788778;30;20070;-67
2022/10/03 05:33:05;;;;;;;9.23;2.33;;;8.40;99.90;;;;;;4788718;30;20059;-68
2022/10/03 05:35:43;;;;;;;5.03;1.77;;;8.40;99.90;;;;;;4758589;30;20050;-67
2022/10/03 05:38:59;;;;;;;8.00;1.98;;;8.40;99.90;;;;;;4788506;30;20066;-68
2022/10/03 05:41:31;;;;;;;7.65;1.90;;;8.40;99.90;;;;;;4769113;30;20055;-69
2022/10/03 05:43:57;;;;;;;4.00;1.65;;;8.40;99.90;;;;;;4759746;30;20054;-67
2022/10/03 05:47:01;;;;;;;7.53;1.75;;;8.30;99.90;;;;;;4788806;30;20055;-68
2022/10/03 05:49:48;;;;;;;8.18;1.85;;;8.30;99.90;;;;;;4771493;30;20055;-67
2022/10/03 05:52:49;;;;;;;7.30;2.10;;;8.30;99.90;;;;;;4788425;30;20051;-67
2022/10/03 05:55:49;;;;;;;8.18;2.08;;;8.30;99.90;;;;;;4772953;29;20051;-68
2022/10/03 05:58:17;;;;;;;7.15;1.75;;;8.20;99.90;;;;;;4765266;30;20573;-67
2022/10/03 06:01:12;;;;;;;9.23;2.70;;;8.20;99.90;;;;;;4773077;30;20087;-68
2022/10/03 06:03:59;;;;;;;7.13;2.10;;;8.30;99.90;;;;;;4779164;29;20511;-67
2022/10/03 06:07:02;;;;;;;7.55;2.30;;;8.30;99.90;;;;;;4767454;30;20059;-67
2022/10/03 06:09:40;;;;;;;9.05;2.25;;;8.30;99.90;;;;;;4758344;30;20131;-68
2022/10/03 06:12:36;;;;;;;8.88;2.25;;;8.30;99.90;;;;;;4771196;30;20393;-67
2022/10/03 06:15:32;;;;;;;6.85;1.95;;;8.40;99.90;;;;;;4787873;30;20147;-67
2022/10/03 06:18:16;;;;;;;3.80;1.98;;;8.40;99.90;;;;;;4762447;30;20100;-67
2022/10/03 06:21:22;;;;;;;6.50;1.75;;;8.40;99.90;;;;;;4789268;30;20051;-68
2022/10/03 06:24:00;;;;;;;8.23;2.08;;;8.40;99.90;;;;;;4700708;30;20112;-67
2022/10/03 06:26:44;;;;;;;6.45;1.55;;;8.50;99.90;;;;;;4693452;30;20148;-67
2022/10/03 06:29:59;;;;;;;7.75;1.67;;;8.40;99.90;;;;;;4749533;29;20504;-66
2022/10/03 06:32:47;;;;;;;7.70;1.65;;;8.50;99.90;;;;;;4789300;29;20415;-67
2022/10/03 06:35:31;;;;;;;6.53;2.15;;;8.60;99.90;;;;;;4773417;30;20066;-67
2022/10/03 06:38:41;;;;;;;5.05;2.00;;;8.70;99.90;;;;;;4773730;30;20443;-68
2022/10/03 06:41:10;;;;;;;2.75;1.67;;;8.80;99.90;;;;;;4758853;30;20139;-68
2022/10/03 06:43:59;;;;;;;7.80;1.70;;;8.90;99.90;;;;;;4779575;30;20055;-68
2022/10/03 06:46:44;;;;;;;6.18;1.90;;;9.00;99.90;;;;;;4773708;30;20070;-67
2022/10/03 06:49:41;;;;;;;11.23;2.53;;;9.10;99.90;;;;;;4773468;30;20142;-68
2022/10/03 06:52:43;;;;;;;6.53;1.80;;;9.20;99.90;;;;;;4789617;30;20090;-67
2022/10/03 06:55:47;;;;;;;8.90;3.08;;;9.30;99.90;;;;;;4773020;30;20070;-67
2022/10/03 06:58:15;;;;;;;7.22;1.98;;;9.40;99.90;;;;;;4779156;30;20060;-67
2022/10/03 07:01:18;;;;;;;6.43;2.13;;;9.60;99.90;;;;;;4771545;30;20146;-67
2022/10/03 07:03:53;;;;;;;;;;;9.70;99.90;;;;;;4750444;30;20083;-67
2022/10/03 07:06:28;;;;;;;6.10;1.98;;;9.70;99.90;;;;;;4753917;30;19932;-67
2022/10/03 07:09:18;;;;;;;7.93;2.42;;;9.90;99.90;;;;;;4768934;30;20071;-68
2022/10/03 07:12:05;;;;;;;6.82;1.95;;;10.00;99.90;;;;;;4769875;30;20139;-67
2022/10/03 07:15:21;;;;;;;6.25;1.80;;;10.10;99.90;;;;;;4770798;30;20047;-68
2022/10/03 07:18:37;;;;;;;7.95;2.35;;;10.30;99.90;;;;;;4770753;30;20052;-70
2022/10/03 07:21:31;;;;;;;5.72;1.92;;;10.40;99.90;;;;;;4755480;30;20056;-68
2022/10/03 07:24:43;;;;;;;10.93;2.13;;;10.50;99.90;;;;;;4769994;30;20056;-68
2022/10/03 07:27:44;;;;;;;8.68;1.85;;;10.70;99.90;;;;;;4754630;30;20051;-68
2022/10/03 07:30:20;;;;;;;7.70;1.70;;;10.80;99.90;;;;;;4770480;30;20048;-68
2022/10/03 07:33:23;;;;;;;7.28;1.73;;;10.90;99.90;;;;;;4770871;30;20419;-67
2022/10/03 07:39:46;;;;;;;9.70;1.80;;;11.20;99.90;;;;;;4769616;30;19920;-68
2022/10/03 07:42:30;;;;;;;6.10;1.50;;;;;;;;;;4770124;30;20106;-68
2022/10/03 07:45:28;;;;;;;9.13;2.05;;;;;;;;;;4770375;30;20048;-68
2022/10/03 07:54:50;;;;;;;8.95;2.08;;;;;;;;;;4769485;30;20162;-68
2022/10/03 08:04:30;;;;;;;7.88;1.80;;;;;;;;;;4769811;30;20159;-68
2022/10/03 08:07:02;;;;;;;4.80;1.60;;;;;;;;;;4753863;30;20497;-68
2022/10/03 08:09:53;;;;;;;4.35;1.50;;;;;;;;;;4753137;30;20151;-69
2022/10/03 08:12:39;;;;;;;4.97;1.20;;;;;;;;;;4754215;30;20059;-68
2022/10/03 08:15:35;;;;;;;7.30;1.40;;;;;;;;;;4770232;30;20048;-69
2022/10/03 08:18:27;;;;;;;11.48;1.77;;;;;;;;;;4753928;30;20048;-69
2022/10/03 08:21:00;;;;;;;14.82;2.40;;;13.40;99.90;;;;;;4754079;30;20058;-68
2022/10/03 08:23:47;;;;;;;7.03;1.60;;;13.20;99.90;;;;;;4769549;30;20052;-68
2022/10/03 08:26:38;;;;;;;5.28;1.58;;;13.50;99.90;;;;;;4770333;30;20063;-69
2022/10/03 08:29:45;;;;;;;4.32;1.23;;;13.50;99.90;;;;;;4731106;30;20131;-68
2022/10/03 08:32:29;;;;;;;4.85;1.67;;;13.60;99.90;;;;;;4715243;30;20057;-69
2022/10/03 08:35:17;;;;;;;7.65;1.30;;;13.50;99.90;;;;;;4769148;30;20225;-69
2022/10/03 08:38:35;;;;;;;4.53;1.10;;;13.90;99.90;;;;;;4770033;30;20531;-69
2022/10/03 08:42:02;;;;;;;5.55;1.10;;;14.00;99.90;;;;;;4784960;30;20050;-69
2022/10/03 08:45:13;;;;;;;6.95;1.40;;;13.80;99.90;;;;;;4770641;30;20086;-69
2022/10/03 08:48:04;;;;;;;5.40;1.17;;;14.20;99.90;;;;;;4768032;30;20135;-69
2022/10/03 08:50:51;;;;;;;4.32;0.90;;;14.30;99.90;;;;;;4751956;30;20051;-68
2022/10/03 08:53:30;;;;;;;6.72;1.33;;;14.40;99.90;;;;;;4770786;30;20501;-69
2022/10/03 08:56:20;;;;;;;8.80;1.60;;;14.50;99.90;;;;;;4789340;30;20062;-70
2022/10/03 08:59:00;;;;;;;6.00;1.48;;;14.60;99.90;;;;;;4771318;30;20079;-68
2022/10/03 09:01:44;;;;;;;5.22;1.10;;;14.70;99.90;;;;;;4773810;30;20497;-69
2022/10/03 09:04:43;;;;;;;6.25;1.40;;;14.80;99.90;;;;;;4789002;30;20063;-68
2022/10/03 09:07:35;;;;;;;7.18;1.52;;;15.00;99.90;;;;;;4789013;30;20059;-68
2022/10/03 09:10:25;;;;;;;6.80;1.60;;;15.10;99.90;;;;;;4770771;30;20157;-68
2022/10/03 09:13:08;;;;;;;7.18;1.50;;;15.10;99.90;;;;;;4771486;30;20066;-69
2022/10/03 09:15:52;;;;;;;7.03;1.20;;;15.10;99.90;;;;;;4774916;30;20521;-68
2022/10/03 09:18:36;;;;;;;3.42;1.30;;;15.30;99.90;;;;;;4774512;30;20062;-68
2022/10/03 09:24:44;;;;;;;8.68;1.35;;;15.30;99.90;;;;;;4773831;30;20055;-68
2022/10/03 09:27:35;;;;;;;8.00;1.70;;;15.40;99.90;;;;;;4774052;30;20067;-69
2022/10/03 09:30:22;;;;;;;7.47;1.63;;;15.60;99.90;;;;;;4774595;30;20512;-68
2022/10/03 09:33:07;;;;;;;6.55;1.48;;;15.60;99.90;;;;;;4789675;30;20078;-68
2022/10/03 09:35:57;;;;;;;4.53;1.10;;;15.60;99.90;;;;;;4774915;30;20050;-70
2022/10/03 09:39:04;;;;;;;4.10;1.25;;;15.80;99.90;;;;;;4789512;30;20117;-68
2022/10/03 09:41:51;;;;;;;6.82;1.40;;;15.70;99.90;;;;;;4736481;30;20531;-68
2022/10/03 09:44:38;;;;;;;6.30;1.05;;;15.70;99.90;;;;;;4750151;30;20127;-68
2022/10/03 09:47:45;;;;;;;7.35;1.05;;;15.90;99.90;;;;;;4778432;30;20458;-68
2022/10/03 09:50:50;;;;;;;6.38;1.45;;;15.90;99.90;;;;;;4774276;30;20086;-68
2022/10/03 09:53:53;;;;;;;6.10;1.50;;;15.80;99.90;;;;;;4790136;30;20055;-68
2022/10/03 09:56:24;;;;;;;4.57;1.45;;;16.00;99.90;;;;;;4790381;30;20101;-68
2022/10/03 09:59:19;;;;;;;6.25;1.38;;;16.10;99.90;;;;;;4787634;30;20059;-68
2022/10/03 10:02:13;;;;;;;8.98;1.48;;;16.30;99.90;;;;;;4789109;30;20054;-68
2022/10/03 10:05:08;;;;;;;4.85;1.30;;;16.50;99.90;;;;;;4773480;30;20059;-68
2022/10/03 10:08:00;;;;;;;4.93;1.08;;;16.20;99.90;;;;;;4773867;30;20063;-68
2022/10/03 10:10:47;;;;;;;4.57;1.30;;;15.70;99.90;;;;;;4773866;30;20055;-68
2022/10/03 10:13:40;;;;;;;9.40;1.30;;;16.50;99.90;;;;;;4773221;30;20497;-68
2022/10/03 10:16:21;;;;;;;6.25;1.02;;;16.60;99.90;;;;;;4772122;30;20047;-68
2022/10/03 10:19:32;;;;;;;6.45;1.40;;;16.60;99.90;;;;;;4771966;30;20445;-68
2022/10/03 10:22:12;;;;;;;4.40;1.02;;;16.50;99.90;;;;;;4771675;30;20497;-69
2022/10/03 10:25:00;;;;;;;4.55;1.20;;;16.30;99.90;;;;;;4757534;30;20067;-68
2022/10/03 10:27:48;;;;;;;7.00;1.15;;;16.60;99.90;;;;;;4771867;30;20070;-68
2022/10/03 10:30:19;;;;;;;5.40;1.10;;;16.70;99.90;;;;;;4784637;30;20059;-68
2022/10/03 10:33:15;;;;;;;5.25;1.55;;;16.70;99.90;;;;;;4788802;30;20055;-68
2022/10/03 10:35:58;;;;;;;4.13;1.20;;;16.70;99.90;;;;;;4788350;30;20067;-68
2022/10/03 10:39:01;;;;;;;7.05;1.63;;;16.70;99.90;;;;;;4772804;30;20409;-68
2022/10/03 10:41:50;;;;;;;3.90;1.08;;;16.80;99.90;;;;;;4783618;30;20067;-68
2022/10/03 10:44:40;;;;;;;4.78;1.08;;;16.90;99.90;;;;;;4761643;30;20189;-68
2022/10/03 10:47:49;;;;;;;5.03;1.05;;;16.90;99.90;;;;;;4772952;30;20087;-68
2022/10/03 10:50:58;;;;;;;3.90;0.90;;;17.00;99.90;;;;;;4771716;30;20055;-68
2022/10/03 10:57:50;;;;;;;4.75;0.98;;;17.50;99.90;;;;;;4788455;30;20522;-68
2022/10/03 11:00:22;;;;;;;5.38;1.30;;;16.90;99.90;;;;;;4784075;30;20055;-68
2022/10/03 11:03:38;;;;;;;6.07;1.17;;;17.10;99.90;;;;;;4788903;30;20093;-68
2022/10/03 11:06:52;;;;;;;4.10;1.40;;;17.30;99.90;;;;;;4789147;30;20063;-68
2022/10/03 11:09:33;;;;;;;7.00;1.20;;;17.10;99.90;;;;;;4782631;30;20138;-68
2022/10/03 11:12:21;;;;;;;5.50;1.20;;;17.70;99.90;;;;;;4771142;30;20500;-68
2022/10/03 11:15:05;;;;;;;6.95;1.33;;;17.30;99.90;;;;;;4781767;29;20079;-68
2022/10/03 11:17:50;;;;;;;3.50;0.93;;;17.00;99.90;;;;;;4770632;30;20063;-68
2022/10/03 11:20:39;;;;;;;6.03;1.35;;;17.30;99.90;;;;;;4755385;30;20059;-68
2022/10/03 11:23:07;;;;;;;8.77;1.88;;;17.10;99.90;;;;;;4770874;30;20058;-68
2022/10/03 11:25:52;;;;;;;6.25;1.70;;;17.30;99.90;;;;;;4771162;30;20094;-68
2022/10/03 11:28:51;;;;;;;6.22;1.73;;;17.60;99.90;;;;;;4776606;30;20059;-67
2022/10/03 11:31:48;;;;;;;3.80;1.23;;;17.00;99.90;;;;;;4772359;30;20408;-68
2022/10/03 11:34:51;;;;;;;5.38;1.13;;;16.80;99.90;;;;;;4789081;30;20525;-67
2022/10/03 11:37:38;;;;;;;4.20;1.10;;;16.90;99.90;;;;;;4787729;29;20144;-68
2022/10/03 11:40:12;;;;;;;3.85;0.90;;;17.00;99.90;;;;;;4771936;30;20504;-67
2022/10/03 11:42:55;;;;;;;2.28;0.93;;;17.20;99.90;;;;;;4772277;30;20066;-67
2022/10/03 11:45:31;;;;;;;3.67;1.10;;;17.30;99.90;;;;;;4769611;30;20465;-68
2022/10/03 11:48:19;;;;;;;4.07;1.13;;;17.40;99.90;;;;;;4770786;30;20061;-68
2022/10/03 11:50:56;;;;;;;3.40;1.10;;;17.40;99.90;;;;;;4756365;30;20134;-68
2022/10/03 11:53:41;;;;;;;6.88;1.13;;;17.30;99.90;;;;;;4787928;30;20239;-68
2022/10/03 11:56:22;;;;;;;4.72;1.45;;;17.60;99.90;;;;;;4787481;30;20647;-68
2022/10/03 11:59:10;;;;;;;4.30;1.23;;;17.50;99.90;;;;;;4784430;30;20047;-68
2022/10/03 12:01:59;;;;;;;5.55;1.15;;;17.70;99.90;;;;;;4787450;30;20059;-68
2022/10/03 12:04:56;;;;;;;3.67;1.33;;;17.50;99.90;;;;;;4783683;30;20105;-68
2022/10/03 12:10:24;;;;;;;3.20;0.93;;;17.60;99.90;;;;;;4783442;30;20072;-67
2022/10/03 12:12:52;;;;;;;3.03;1.00;;;17.60;99.90;;;;;;4770371;30;20062;-68
2022/10/03 12:15:42;;;;;;;4.90;1.10;;;17.40;99.90;;;;;;4777096;30;20120;-68
2022/10/03 12:18:49;;;;;;;4.15;0.95;;;17.40;99.90;;;;;;4787736;29;20063;-67
2022/10/03 12:21:38;;;;;;;5.53;1.05;;;17.60;99.90;;;;;;4787055;29;20059;-67
2022/10/03 12:24:24;;;;;;;3.80;1.00;;;17.40;99.90;;;;;;4786892;30;20110;-67
2022/10/03 12:27:05;;;;;;;7.47;1.50;;;17.20;99.90;;;;;;4787909;29;20134;-68
2022/10/03 12:29:35;;;;;;;7.53;1.15;;;17.30;99.90;;;;;;4786011;30;20059;-68
2022/10/03 12:32:10;;;;;;;7.18;1.10;;;17.30;99.90;;;;;;4770037;30;20079;-68
2022/10/03 12:35:01;;;;;;;4.43;1.10;;;17.40;99.90;;;;;;4770105;30;20213;-68
2022/10/03 12:37:51;;;;;;;3.78;1.33;;;17.50;99.90;;;;;;4769878;30;20095;-67
2022/10/03 12:40:26;;;;;;;4.07;1.20;;;17.50;99.90;;;;;;4769372;30;20367;-67
2022/10/03 12:43:09;;;;;;;5.53;1.98;;;17.60;99.90;;;;;;4770223;30;20397;-67
2022/10/03 12:46:00;;;;;;;5.57;1.80;;;17.40;99.90;;;;;;4782538;30;20522;-68
2022/10/03 12:48:42;;;;;;;4.80;1.50;;;17.50;99.90;;;;;;4786802;29;20146;-68
2022/10/03 12:51:53;;;;;;;5.15;1.38;;;17.40;99.90;;;;;;4769838;30;20061;-68
2022/10/03 12:54:38;;;;;;;4.25;1.13;;;17.40;99.90;;;;;;4773943;30;20111;-68
2022/10/03 12:57:25;;;;;;;5.43;1.27;;;17.40;99.90;;;;;;4783759;30;21645;-68
2022/10/03 12:59:50;;;;;;;4.25;0.88;;;17.50;99.90;;;;;;4782665;30;20468;-68
2022/10/03 13:02:23;;;;;;;3.50;1.08;;;17.20;99.90;;;;;;4784098;30;20098;-68
2022/10/03 13:05:10;;;;;;;3.00;0.90;;;17.40;99.90;;;;;;4783620;30;20472;-68
2022/10/03 13:07:52;;;;;;;4.82;1.40;;;17.30;99.90;;;;;;4786956;30;20105;-68
2022/10/03 13:10:54;;;;;;;4.65;1.13;;;17.10;99.90;;;;;;4785450;30;20048;-69
2022/10/03 13:13:32;;;;;;;6.20;1.25;;;17.20;99.90;;;;;;4770424;30;20059;-68
2022/10/03 13:16:20;;;;;;;5.80;1.08;;;17.40;99.90;;;;;;4770544;30;20055;-69
2022/10/03 13:18:58;;;;;;;4.15;1.10;;;17.20;99.90;;;;;;4787582;30;20059;-68
2022/10/03 13:22:02;;;;;;;3.83;1.02;;;17.60;99.90;;;;;;4786336;30;20123;-68
2022/10/03 13:24:33;;;;;;;4.20;1.08;;;17.50;99.90;;;;;;4786038;30;20112;-69
2022/10/03 13:27:21;;;;;;;5.55;1.23;;;17.50;99.90;;;;;;4787043;30;20382;-68
2022/10/03 13:30:04;;;;;;;2.80;1.00;;;17.60;99.90;;;;;;4786018;29;20099;-68
2022/10/03 13:32:41;;;;;;;4.72;1.00;;;17.50;99.90;;;;;;4787453;30;20116;-69
2022/10/03 13:38:22;;;;;;;4.47;1.60;;;17.60;99.90;;;;;;4764264;29;20059;-68
2022/10/03 13:40:54;;;;;;;3.60;1.30;;;17.40;99.90;;;;;;4773826;30;20134;-68
2022/10/03 13:43:33;;;;;;;4.18;1.05;;;17.50;99.90;;;;;;4790462;29;20063;-69
2022/10/03 13:46:01;;;;;;;6.97;1.70;;;17.30;99.90;;;;;;4790736;30;20390;-68
2022/10/03 13:48:28;;;;;;;5.35;1.48;;;17.40;99.90;;;;;;4790155;29;20560;-68
2022/10/03 13:51:44;;;;;;;4.90;1.05;;;17.50;99.90;;;;;;4790865;29;20097;-68
2022/10/03 13:54:38;;;;;;;2.83;0.82;;;17.60;99.90;;;;;;4748009;30;20501;-68
2022/10/03 13:57:44;;;;;;;3.65;1.15;;;17.60;99.90;;;;;;4757190;30;20060;-68
2022/10/03 14:00:20;;;;;;;4.63;1.50;;;17.70;99.90;;;;;;4717421;30;20122;-68
2022/10/03 14:03:10;;;;;;;4.93;1.00;;;17.60;99.90;;;;;;4748413;30;20117;-68
2022/10/03 14:05:52;;;;;;;5.00;0.90;;;17.70;99.90;;;;;;4766602;30;20116;-68
2022/10/03 14:08:49;;;;;;;3.93;1.13;;;17.50;99.90;;;;;;4788002;30;20087;-68
2022/10/03 14:11:14;;;;;;;5.20;1.42;;;17.40;99.90;;;;;;4788964;29;20390;-68
2022/10/03 14:13:47;;;;;;;5.88;1.25;;;17.30;99.90;;;;;;4773796;30;20505;-68
2022/10/03 14:16:30;;;;;;;4.32;1.23;;;17.20;99.90;;;;;;4789566;30;20069;-68
2022/10/03 14:19:16;;;;;;;2.42;1.08;;;17.30;99.90;;;;;;4773585;30;20155;-68
2022/10/03 14:22:11;;;;;;;4.70;0.98;;;17.10;99.90;;;;;;4774114;30;20070;-68
2022/10/03 14:24:52;;;;;;;2.78;0.90;;;17.20;99.90;;;;;;4789237;30;20075;-68
2022/10/03 14:27:24;;;;;;;5.22;1.63;;;17.20;99.90;;;;;;4773504;30;20138;-68
2022/10/03 14:29:54;;;;;;;3.67;1.13;;;17.20;99.90;;;;;;4788521;29;20063;-68
2022/10/03 14:32:45;;;;;;;4.40;1.25;;;17.50;99.90;;;;;;4789245;30;20070;-68
2022/10/03 14:35:37;;;;;;;4.40;1.38;;;17.20;99.90;;;;;;4788780;30;20066;-68
2022/10/03 14:38:09;;;;;;;;;;;17.30;99.90;;;;;;4773690;30;20066;-68
2022/10/03 14:40:42;;;;;;;4.73;0.93;;;17.30;99.90;;;;;;4773482;30;20016;-68
2022/10/03 14:43:37;;;;;;;5.45;1.20;;;17.30;99.90;;;;;;4773562;30;20159;-67
2022/10/03 14:46:05;;;;;;;3.30;1.02;;;17.20;99.90;;;;;;4788631;30;20063;-68
2022/10/03 14:48:35;;;;;;;3.22;0.88;;;17.10;99.90;;;;;;4771848;30;20062;-68
2022/10/03 14:51:21;;;;;;;3.70;1.35;;;17.50;99.90;;;;;;4786620;29;20073;-68
2022/10/03 14:54:18;;;;;;;6.68;1.50;;;17.30;99.90;;;;;;4785962;30;20094;-68
2022/10/03 14:56:46;;;;;;;6.47;1.23;;;17.30;99.90;;;;;;4769367;30;20055;-68
2022/10/03 14:59:33;;;;;;;5.60;1.10;;;17.20;99.90;;;;;;4772985;30;20116;-67
2022/10/03 15:02:38;;;;;;;5.05;1.15;;;17.20;99.90;;;;;;4789066;30;20401;-68
2022/10/03 15:05:33;;;;;;;3.47;1.13;;;17.10;99.90;;;;;;4699006;30;20078;-68
2022/10/03 15:08:02;;;;;;;4.60;1.08;;;17.00;99.90;;;;;;4769914;30;20067;-68
2022/10/03 15:10:29;;;;;;;2.47;1.08;;;16.90;99.90;;;;;;4770661;30;20128;-68
2022/10/03 15:13:01;;;;;;;4.47;1.10;;;17.20;99.90;;;;;;4785799;30;20070;-68
2022/10/03 15:15:30;;;;;;;4.38;0.88;;;17.60;99.90;;;;;;4786188;30;20318;-68
2022/10/03 15:18:02;;;;;;;3.13;1.00;;;16.80;99.90;;;;;;4787495;30;20059;-68
2022/10/03 15:20:35;;;;;;;3.25;1.20;;;16.80;99.90;;;;;;4788668;30;20412;-67
2022/10/03 15:23:05;;;;;;;4.63;1.38;;;16.80;99.90;;;;;;4772501;30;20478;-67
2022/10/03 15:25:41;;;;;;;3.90;1.35;;;16.80;99.90;;;;;;4792969;29;20119;-67
2022/10/03 15:31:17;;;;;;;7.07;1.30;;;16.70;99.90;;;;;;4785044;30;20059;-67
2022/10/03 15:33:44;;;;;;;4.93;1.33;;;16.40;99.90;;;;;;4788339;30;20103;-67
2022/10/03 15:36:15;;;;;;;4.95;1.35;;;16.60;99.90;;;;;;4788763;30;20560;-67
2022/10/03 15:38:47;;;;;;;6.00;1.27;;;16.70;99.90;;;;;;4785054;30;20453;-68
2022/10/03 15:41:13;;;;;;;;;;;16.70;99.90;;;;;;4785422;30;20067;-67
2022/10/03 15:44:04;;;;;;;5.80;2.67;;;17.10;99.90;;;;;;4783514;30;20302;-67
2022/10/03 15:46:38;;;;;;;3.55;1.48;;;16.80;99.90;;;;;;4765128;30;20127;-67
2022/10/03 15:49:55;;;;;;;5.40;1.50;;;17.40;99.90;;;;;;4787090;29;20063;-68
2022/10/03 15:52:33;;;;;;;7.05;1.40;;;17.10;99.90;;;;;;4773235;30;20423;-67
2022/10/03 15:55:04;;;;;;;5.53;1.67;;;16.50;99.90;;;;;;4771984;30;20069;-67
2022/10/03 15:57:37;;;;;;;6.78;2.03;;;16.40;99.90;;;;;;4788524;30;20497;-66
2022/10/03 16:00:06;;;;;;;3.65;1.52;;;16.50;99.90;;;;;;4787231;30;20167;-67
2022/10/03 16:02:38;;;;;;;4.10;1.20;;;16.20;99.90;;;;;;4787580;29;20069;-67
2022/10/03 16:05:06;;;;;;;;;;;16.50;99.90;;;;;;4778646;30;20069;-68
2022/10/03 16:08:29;;;;;;;2.65;1.42;;;16.00;99.90;;;;;;4788357;29;20239;-67